createdAt,value
2019-01-15T00:00:03.904Z,0.56
2019-01-15T00:05:03.917Z,0.56
2019-01-15T00:10:03.911Z,0.63
2019-01-15T00:15:03.908Z,0.69
2019-01-15T00:20:03.912Z,0.69
2019-01-15T00:25:04.070Z,0.69
2019-01-15T00:30:03.909Z,0.69
2019-01-15T00:35:03.958Z,0.75
2019-01-15T00:40:03.941Z,0.75
2019-01-15T00:45:03.920Z,0.81
2019-01-15T00:50:03.948Z,0.81
2019-01-15T00:55:03.921Z,0.81
2019-01-15T01:00:03.969Z,0.81
2019-01-15T01:05:03.906Z,0.81
2019-01-15T01:10:03.923Z,0.88
2019-01-15T01:15:03.935Z,0.88
2019-01-15T01:20:03.919Z,0.88
2019-01-15T01:25:03.929Z,0.94
2019-01-15T01:30:03.935Z,0.94
2019-01-15T01:35:03.925Z,1
2019-01-15T01:40:03.942Z,1
2019-01-15T01:45:03.941Z,1
2019-01-15T01:50:03.921Z,1
2019-01-15T01:55:03.934Z,0.94
2019-01-15T02:00:03.944Z,0.88
2019-01-15T02:05:03.932Z,0.88
2019-01-15T02:10:03.942Z,0.88
2019-01-15T02:15:03.945Z,0.88
2019-01-15T02:20:03.949Z,0.81
2019-01-15T02:25:03.951Z,0.81
2019-01-15T02:30:03.952Z,0.81
2019-01-15T02:35:03.995Z,0.81
2019-01-15T02:40:03.926Z,0.81
2019-01-15T02:45:03.960Z,0.81
2019-01-15T02:50:03.981Z,0.88
2019-01-15T02:55:03.962Z,0.88
2019-01-15T03:00:03.965Z,0.88
2019-01-15T03:05:03.965Z,0.94
2019-01-15T03:10:03.968Z,0.94
2019-01-15T03:15:04.031Z,0.94
2019-01-15T03:20:03.970Z,1
2019-01-15T03:25:03.973Z,1
2019-01-15T03:30:04.019Z,1.06
2019-01-15T03:35:03.976Z,1.13
2019-01-15T03:40:03.951Z,1.13
2019-01-15T03:45:05.032Z,1.19
2019-01-15T03:50:03.975Z,1.19
2019-01-15T03:55:03.978Z,1.25
2019-01-15T04:00:04.027Z,1.31
2019-01-15T04:05:03.969Z,1.31
2019-01-15T04:10:03.984Z,1.38
2019-01-15T04:15:03.994Z,1.44
2019-01-15T04:20:03.994Z,1.44
2019-01-15T04:25:03.994Z,1.44
2019-01-15T04:30:03.989Z,1.44
2019-01-15T04:35:03.992Z,1.44
2019-01-15T04:40:04.006Z,1.5
2019-01-15T04:45:04.014Z,1.44
2019-01-15T04:50:03.988Z,1.44
2019-01-15T04:55:04.003Z,1.5
2019-01-15T05:00:04.006Z,1.5
2019-01-15T05:05:03.995Z,1.5
2019-01-15T05:10:04.002Z,1.5
2019-01-15T05:15:04.006Z,1.5
2019-01-15T05:20:04.011Z,1.5
2019-01-15T05:25:04.004Z,1.5
2019-01-15T05:30:04.016Z,1.5
2019-01-15T05:35:04.015Z,1.5
2019-01-15T05:40:03.986Z,1.5
2019-01-15T05:45:04.020Z,1.56
2019-01-15T05:50:03.993Z,1.56
2019-01-15T05:55:04.031Z,1.5
2019-01-15T06:00:04.032Z,1.5
2019-01-15T06:05:04.083Z,1.56
2019-01-15T06:10:04.024Z,1.56
2019-01-15T06:15:04.026Z,1.56
2019-01-15T06:20:04.025Z,1.56
2019-01-15T06:25:04.001Z,1.5
2019-01-15T06:30:04.008Z,1.5
2019-01-15T06:35:04.034Z,1.5
2019-01-15T06:40:04.032Z,1.5
2019-01-15T06:45:04.044Z,1.5
2019-01-15T06:50:04.043Z,1.5
2019-01-15T06:55:04.050Z,1.56
2019-01-15T07:00:04.041Z,1.56
2019-01-15T07:05:04.073Z,1.56
2019-01-15T07:10:04.036Z,1.63
2019-01-15T07:15:04.049Z,1.75
2019-01-15T07:20:04.047Z,1.75
2019-01-15T07:25:04.046Z,1.81
2019-01-15T07:30:04.061Z,1.81
2019-01-15T07:35:04.055Z,1.88
2019-01-15T07:40:04.055Z,1.94
2019-01-15T07:45:04.028Z,2
2019-01-15T07:50:04.055Z,2
2019-01-15T07:55:04.055Z,2.13
2019-01-15T08:00:04.039Z,2.13
2019-01-15T08:05:04.054Z,2.13
2019-01-15T08:10:04.068Z,2.19
2019-01-15T08:15:04.069Z,2.19
2019-01-15T08:20:04.069Z,2.19
2019-01-15T08:25:04.086Z,2.19
2019-01-15T08:30:04.133Z,2.19
2019-01-15T08:35:04.076Z,2.19
2019-01-15T08:40:04.086Z,2.31
2019-01-15T08:45:04.050Z,2.38
2019-01-15T08:50:04.084Z,2.38
2019-01-15T08:55:04.046Z,2.44
2019-01-15T09:00:04.057Z,2.38
2019-01-15T09:05:04.102Z,2.44
2019-01-15T09:10:04.088Z,2.44
2019-01-15T09:15:04.083Z,2.38
2019-01-15T09:20:04.894Z,2.38
2019-01-15T09:25:04.088Z,2.38
2019-01-15T09:30:04.095Z,2.38
2019-01-15T09:35:04.087Z,2.31
2019-01-15T09:40:04.092Z,2.06
2019-01-15T09:45:04.091Z,1.75
2019-01-15T09:50:04.097Z,1.75
2019-01-15T09:55:04.096Z,1.88
2019-01-15T10:00:04.106Z,2
2019-01-15T10:05:04.104Z,2.13
2019-01-15T10:10:04.103Z,2.25
2019-01-15T10:15:04.112Z,2.31
2019-01-15T10:20:04.116Z,2.44
2019-01-15T10:25:04.107Z,2.5
2019-01-15T10:30:04.114Z,2.56
2019-01-15T10:35:04.114Z,2.69
2019-01-15T10:40:04.117Z,2.75
2019-01-15T10:45:04.115Z,2.75
2019-01-15T10:50:04.396Z,2.88
2019-01-15T10:55:04.177Z,3
2019-01-15T11:00:04.171Z,3.06
2019-01-15T11:05:04.180Z,3.13
2019-01-15T11:10:04.131Z,3.19
2019-01-15T11:15:04.124Z,3.25
2019-01-15T11:20:04.193Z,3.31
2019-01-15T11:25:04.135Z,3.38
2019-01-15T11:40:03.996Z,3.38
2019-01-15T11:55:03.919Z,3.38
2019-01-15T12:00:03.875Z,3.44
2019-01-15T12:05:03.932Z,3.44
2019-01-15T12:10:03.891Z,3.5
2019-01-15T12:15:10.580Z,3.56
2019-01-15T12:20:03.888Z,3.56
2019-01-15T12:25:03.897Z,3.56
2019-01-15T12:30:03.943Z,3.56
2019-01-15T12:35:03.886Z,3.63
2019-01-15T12:40:03.903Z,3.63
2019-01-15T12:45:03.888Z,3.69
2019-01-15T12:50:03.885Z,3.69
2019-01-15T12:55:03.900Z,3.81
2019-01-15T13:00:03.904Z,3.81
2019-01-15T13:05:03.880Z,3.81
2019-01-15T13:10:03.905Z,3.75
2019-01-15T13:15:03.884Z,3.81
2019-01-15T13:20:03.892Z,3.88
2019-01-15T13:25:03.916Z,3.88
2019-01-15T13:30:03.914Z,3.94
2019-01-15T13:35:03.913Z,3.94
2019-01-15T13:40:03.916Z,4
2019-01-15T13:45:03.958Z,4.13
2019-01-15T13:50:03.912Z,4.13
2019-01-15T13:55:03.991Z,4.19
2019-01-15T14:00:03.924Z,4.19
2019-01-15T14:05:03.921Z,4.25
2019-01-15T14:10:03.921Z,4.31
2019-01-15T14:15:03.982Z,4.38
2019-01-15T14:20:03.919Z,4.38
2019-01-15T14:25:03.928Z,4.38
2019-01-15T14:30:03.987Z,4.38
2019-01-15T14:35:03.899Z,4.38
2019-01-15T14:40:03.925Z,4.44
2019-01-15T14:45:03.984Z,4.44
2019-01-15T14:50:03.918Z,4.44
2019-01-15T14:55:03.930Z,4.44
2019-01-15T15:00:03.923Z,4.5
2019-01-15T15:05:03.916Z,4.5
2019-01-15T15:10:03.934Z,4.5
2019-01-15T15:15:03.960Z,4.56
2019-01-15T15:20:03.945Z,4.5
2019-01-15T15:25:03.938Z,4.5
2019-01-15T15:30:03.929Z,4.5
2019-01-15T15:35:03.908Z,4.56
2019-01-15T15:40:03.937Z,4.56
2019-01-15T15:45:03.932Z,4.69
2019-01-15T15:50:03.940Z,4.69
2019-01-15T15:55:03.950Z,4.69
2019-01-15T16:00:03.941Z,4.69
2019-01-15T16:05:03.945Z,4.69
2019-01-15T16:10:03.956Z,4.69
2019-01-15T16:15:03.920Z,4.75
2019-01-15T16:20:03.921Z,4.75
2019-01-15T16:25:33.953Z,4.75
2019-01-15T16:30:03.960Z,4.75
2019-01-15T16:35:03.960Z,4.75
2019-01-15T16:40:03.938Z,4.75
2019-01-15T16:45:03.945Z,4.75
2019-01-15T16:50:11.101Z,4.94
2019-01-15T16:55:03.922Z,4.94
2019-01-15T17:00:03.952Z,5
2019-01-15T17:05:03.932Z,5
2019-01-15T17:10:03.951Z,5
2019-01-15T17:15:03.956Z,5
2019-01-15T17:20:03.930Z,5
2019-01-15T17:25:03.937Z,5
2019-01-15T17:30:03.969Z,5.06
2019-01-15T17:35:03.965Z,5.06
2019-01-15T17:40:03.962Z,5.06
2019-01-15T17:45:04.000Z,5.13
2019-01-15T17:50:03.964Z,5.13
2019-01-15T17:55:03.971Z,5.19
2019-01-15T18:00:03.977Z,5.19
2019-01-15T18:05:03.946Z,5.25
2019-01-15T18:10:04.044Z,5.25
2019-01-15T18:15:03.990Z,5.25
2019-01-15T18:20:03.955Z,5.25
2019-01-15T18:25:03.957Z,5.31
2019-01-15T18:30:03.987Z,5.31
2019-01-15T18:35:03.956Z,5.31
2019-01-15T18:40:03.958Z,5.31
2019-01-15T18:45:03.997Z,5.38
2019-01-15T18:50:03.993Z,5.38
2019-01-15T18:55:03.986Z,5.44
2019-01-15T19:00:04.113Z,5.44
2019-01-15T19:05:04.003Z,5.44
2019-01-15T19:10:04.000Z,5.5
2019-01-15T19:15:03.993Z,5.5
2019-01-15T19:20:04.003Z,5.5
2019-01-15T19:25:03.997Z,5.5
2019-01-15T19:30:04.010Z,5.5
2019-01-15T19:35:04.006Z,5.5
2019-01-15T19:40:03.996Z,5.5
2019-01-15T19:45:04.001Z,5.5
2019-01-15T19:50:03.994Z,5.5
2019-01-15T19:55:04.006Z,5.56
2019-01-15T20:00:04.065Z,5.56
2019-01-15T20:10:04.024Z,5.56
2019-01-15T20:15:04.065Z,5.63
2019-01-15T20:20:04.009Z,5.63
2019-01-15T20:25:04.009Z,5.56
2019-01-15T20:30:04.050Z,5.56
2019-01-15T20:35:04.026Z,5.5
2019-01-15T20:40:04.032Z,5.56
2019-01-15T20:45:04.021Z,5.56
2019-01-15T20:50:04.028Z,5.5
2019-01-15T20:55:04.030Z,5.5
2019-01-15T21:00:04.040Z,5.5
2019-01-15T21:05:04.019Z,5.56
2019-01-15T21:10:04.027Z,5.56
2019-01-15T21:15:04.040Z,5.56
2019-01-15T21:20:04.039Z,5.56
2019-01-15T21:25:04.060Z,5.5
2019-01-15T21:30:04.068Z,5.5
2019-01-15T21:35:04.036Z,5.5
2019-01-15T21:40:04.041Z,5.44
2019-01-15T21:45:04.192Z,5.31
2019-01-15T21:50:04.035Z,5.31
2019-01-15T21:55:04.040Z,5.25
2019-01-15T22:00:04.132Z,5.19
2019-01-15T22:05:04.053Z,5.19
2019-01-15T22:10:04.045Z,5.19
2019-01-15T22:15:04.058Z,5.25
2019-01-15T22:20:04.068Z,5.25
2019-01-15T22:25:04.233Z,5.19
2019-01-15T22:30:04.037Z,5.19
2019-01-15T22:35:04.055Z,5.13
2019-01-15T22:40:04.054Z,5.19
2019-01-15T22:45:04.050Z,5.25
2019-01-15T22:50:04.065Z,5.25
2019-01-15T22:55:04.062Z,5.25
2019-01-15T23:00:04.043Z,5.31
2019-01-15T23:05:04.096Z,5.38
2019-01-15T23:10:04.040Z,5.38
2019-01-15T23:15:09.066Z,5.38
2019-01-15T23:20:04.069Z,5.44
2019-01-15T23:25:04.071Z,5.44
2019-01-15T23:30:04.068Z,5.44
2019-01-15T23:35:04.095Z,5.44
2019-01-15T23:40:04.067Z,5.44
2019-01-15T23:45:04.052Z,5.44
2019-01-15T23:50:04.100Z,5.44
2019-01-15T23:55:04.093Z,5.5
